sensor_id;sensor_type;location;lat;lon;timestamp;P1;durP1;ratioP1;P2;durP2;ratioP2
3916;SDS011;1973;50.518;7.318;2023-02-28T00:00:31;3.03;;;1.90;;
3916;SDS011;1973;50.518;7.318;2023-02-28T00:02:58;5.77;;;2.50;;
3916;SDS011;1973;50.518;7.318;2023-02-28T00:05:25;4.80;;;2.80;;
3916;SDS011;1973;50.518;7.318;2023-02-28T00:07:53;6.30;;;3.40;;
3916;SDS011;1973;50.518;7.318;2023-02-28T00:10:22;7.30;;;3.37;;
3916;SDS011;1973;50.518;7.318;2023-02-28T00:12:51;7.30;;;3.73;;
3916;SDS011;1973;50.518;7.318;2023-02-28T00:15:20;10.60;;;5.20;;
3916;SDS011;1973;50.518;7.318;2023-02-28T00:17:47;7.83;;;3.73;;
3916;SDS011;1973;50.518;7.318;2023-02-28T00:20:13;9.90;;;4.70;;
3916;SDS011;1973;50.518;7.318;2023-02-28T00:22:44;11.17;;;5.40;;
3916;SDS011;1973;50.518;7.318;2023-02-28T00:25:13;8.60;;;4.67;;
3916;SDS011;1973;50.518;7.318;2023-02-28T00:27:41;5.93;;;3.13;;
3916;SDS011;1973;50.518;7.318;2023-02-28T00:30:10;4.13;;;2.50;;
3916;SDS011;1973;50.518;7.318;2023-02-28T00:32:38;4.63;;;2.47;;
3916;SDS011;1973;50.518;7.318;2023-02-28T00:35:05;3.27;;;1.80;;
3916;SDS011;1973;50.518;7.318;2023-02-28T00:37:32;4.40;;;2.70;;
3916;SDS011;1973;50.518;7.318;2023-02-28T00:39:59;4.70;;;2.43;;
3916;SDS011;1973;50.518;7.318;2023-02-28T00:42:26;4.77;;;2.77;;
3916;SDS011;1973;50.518;7.318;2023-02-28T00:44:53;5.40;;;2.93;;
3916;SDS011;1973;50.518;7.318;2023-02-28T00:47:20;5.57;;;2.90;;
3916;SDS011;1973;50.518;7.318;2023-02-28T00:49:46;5.57;;;2.50;;
3916;SDS011;1973;50.518;7.318;2023-02-28T00:52:13;4.67;;;2.10;;
3916;SDS011;1973;50.518;7.318;2023-02-28T00:54:39;4.73;;;2.57;;
3916;SDS011;1973;50.518;7.318;2023-02-28T00:57:06;4.07;;;2.17;;
3916;SDS011;1973;50.518;7.318;2023-02-28T00:59:32;4.63;;;2.60;;
3916;SDS011;1973;50.518;7.318;2023-02-28T01:01:58;12.07;;;9.80;;
3916;SDS011;1973;50.518;7.318;2023-02-28T01:04:25;7.20;;;5.73;;
3916;SDS011;1973;50.518;7.318;2023-02-28T01:06:52;6.60;;;4.33;;
3916;SDS011;1973;50.518;7.318;2023-02-28T01:09:18;4.57;;;3.20;;
3916;SDS011;1973;50.518;7.318;2023-02-28T01:11:44;3.03;;;2.03;;
3916;SDS011;1973;50.518;7.318;2023-02-28T01:14:15;4.47;;;2.50;;
3916;SDS011;1973;50.518;7.318;2023-02-28T01:16:42;4.17;;;2.00;;
3916;SDS011;1973;50.518;7.318;2023-02-28T01:19:09;3.07;;;1.90;;
3916;SDS011;1973;50.518;7.318;2023-02-28T01:21:36;3.80;;;2.20;;
3916;SDS011;1973;50.518;7.318;2023-02-28T01:24:03;4.63;;;2.27;;
3916;SDS011;1973;50.518;7.318;2023-02-28T01:26:30;3.33;;;2.03;;
3916;SDS011;1973;50.518;7.318;2023-02-28T01:28:57;4.60;;;2.13;;
3916;SDS011;1973;50.518;7.318;2023-02-28T01:31:24;4.23;;;2.70;;
3916;SDS011;1973;50.518;7.318;2023-02-28T01:33:52;2.87;;;2.17;;
3916;SDS011;1973;50.518;7.318;2023-02-28T01:36:20;7.47;;;4.50;;
3916;SDS011;1973;50.518;7.318;2023-02-28T01:38:49;5.03;;;3.30;;
3916;SDS011;1973;50.518;7.318;2023-02-28T01:41:22;4.90;;;3.60;;
3916;SDS011;1973;50.518;7.318;2023-02-28T01:43:55;5.73;;;3.83;;
3916;SDS011;1973;50.518;7.318;2023-02-28T01:46:51;4.80;;;3.40;;
3916;SDS011;1973;50.518;7.318;2023-02-28T01:49:18;4.50;;;2.40;;
3916;SDS011;1973;50.518;7.318;2023-02-28T01:51:49;6.87;;;2.30;;
3916;SDS011;1973;50.518;7.318;2023-02-28T01:54:22;4.77;;;2.20;;
3916;SDS011;1973;50.518;7.318;2023-02-28T01:56:57;3.10;;;2.17;;
3916;SDS011;1973;50.518;7.318;2023-02-28T01:59:33;2.70;;;2.27;;
3916;SDS011;1973;50.518;7.318;2023-02-28T02:02:05;3.10;;;2.30;;
3916;SDS011;1973;50.518;7.318;2023-02-28T02:04:36;2.70;;;2.37;;
3916;SDS011;1973;50.518;7.318;2023-02-28T02:07:06;2.83;;;2.30;;
3916;SDS011;1973;50.518;7.318;2023-02-28T02:09:33;3.83;;;2.50;;
3916;SDS011;1973;50.518;7.318;2023-02-28T02:11:59;5.40;;;2.70;;
3916;SDS011;1973;50.518;7.318;2023-02-28T02:14:44;4.87;;;2.60;;
3916;SDS011;1973;50.518;7.318;2023-02-28T02:17:38;4.20;;;2.70;;
3916;SDS011;1973;50.518;7.318;2023-02-28T02:23:17;3.30;;;2.13;;
3916;SDS011;1973;50.518;7.318;2023-02-28T02:25:56;2.90;;;1.83;;
3916;SDS011;1973;50.518;7.318;2023-02-28T02:28:50;8.10;;;2.57;;
3916;SDS011;1973;50.518;7.318;2023-02-28T02:34:48;3.73;;;2.23;;
3916;SDS011;1973;50.518;7.318;2023-02-28T02:39:59;3.83;;;2.60;;
3916;SDS011;1973;50.518;7.318;2023-02-28T02:42:39;4.77;;;1.90;;
3916;SDS011;1973;50.518;7.318;2023-02-28T02:45:08;3.00;;;2.13;;
3916;SDS011;1973;50.518;7.318;2023-02-28T02:47:38;5.00;;;2.40;;
3916;SDS011;1973;50.518;7.318;2023-02-28T02:50:08;4.90;;;2.73;;
3916;SDS011;1973;50.518;7.318;2023-02-28T02:52:41;5.57;;;3.67;;
3916;SDS011;1973;50.518;7.318;2023-02-28T02:55:12;7.77;;;2.60;;
3916;SDS011;1973;50.518;7.318;2023-02-28T02:57:47;3.37;;;2.10;;
3916;SDS011;1973;50.518;7.318;2023-02-28T03:00:18;4.63;;;2.50;;
3916;SDS011;1973;50.518;7.318;2023-02-28T03:02:49;4.73;;;2.60;;
3916;SDS011;1973;50.518;7.318;2023-02-28T03:05:23;3.53;;;1.90;;
3916;SDS011;1973;50.518;7.318;2023-02-28T03:07:54;4.13;;;2.43;;
3916;SDS011;1973;50.518;7.318;2023-02-28T03:10:35;4.47;;;2.10;;
3916;SDS011;1973;50.518;7.318;2023-02-28T03:15:57;8.43;;;2.57;;
3916;SDS011;1973;50.518;7.318;2023-02-28T03:27:39;4.70;;;2.00;;
3916;SDS011;1973;50.518;7.318;2023-02-28T03:30:23;3.00;;;1.77;;
3916;SDS011;1973;50.518;7.318;2023-02-28T03:32:57;3.20;;;2.20;;
3916;SDS011;1973;50.518;7.318;2023-02-28T03:35:30;4.10;;;1.87;;
3916;SDS011;1973;50.518;7.318;2023-02-28T03:38:01;3.63;;;2.13;;
3916;SDS011;1973;50.518;7.318;2023-02-28T03:40:41;3.67;;;2.10;;
3916;SDS011;1973;50.518;7.318;2023-02-28T03:43:13;2.40;;;2.00;;
3916;SDS011;1973;50.518;7.318;2023-02-28T03:45:44;3.23;;;2.43;;
3916;SDS011;1973;50.518;7.318;2023-02-28T03:48:16;3.67;;;2.00;;
3916;SDS011;1973;50.518;7.318;2023-02-28T03:50:49;3.20;;;2.17;;
3916;SDS011;1973;50.518;7.318;2023-02-28T03:56:02;3.67;;;2.47;;
3916;SDS011;1973;50.518;7.318;2023-02-28T04:01:42;3.03;;;2.17;;
3916;SDS011;1973;50.518;7.318;2023-02-28T04:04:11;3.37;;;2.10;;
3916;SDS011;1973;50.518;7.318;2023-02-28T04:06:39;4.03;;;2.17;;
3916;SDS011;1973;50.518;7.318;2023-02-28T04:09:07;4.13;;;2.97;;
3916;SDS011;1973;50.518;7.318;2023-02-28T04:11:45;7.67;;;2.50;;
3916;SDS011;1973;50.518;7.318;2023-02-28T04:14:15;3.87;;;2.50;;
3916;SDS011;1973;50.518;7.318;2023-02-28T04:16:41;3.63;;;2.30;;
3916;SDS011;1973;50.518;7.318;2023-02-28T04:19:09;4.07;;;2.90;;
3916;SDS011;1973;50.518;7.318;2023-02-28T04:21:38;2.87;;;2.40;;
3916;SDS011;1973;50.518;7.318;2023-02-28T04:24:10;3.07;;;2.33;;
3916;SDS011;1973;50.518;7.318;2023-02-28T04:26:43;3.30;;;1.90;;
3916;SDS011;1973;50.518;7.318;2023-02-28T04:29:11;3.97;;;2.73;;
3916;SDS011;1973;50.518;7.318;2023-02-28T04:31:39;6.03;;;2.83;;
3916;SDS011;1973;50.518;7.318;2023-02-28T04:34:06;3.07;;;2.47;;
3916;SDS011;1973;50.518;7.318;2023-02-28T04:36:33;4.20;;;2.23;;
3916;SDS011;1973;50.518;7.318;2023-02-28T04:38:59;3.27;;;2.03;;
3916;SDS011;1973;50.518;7.318;2023-02-28T04:41:26;3.80;;;2.20;;
3916;SDS011;1973;50.518;7.318;2023-02-28T04:43:57;4.93;;;2.70;;
3916;SDS011;1973;50.518;7.318;2023-02-28T04:46:23;5.93;;;2.90;;
3916;SDS011;1973;50.518;7.318;2023-02-28T04:48:50;3.30;;;2.67;;
3916;SDS011;1973;50.518;7.318;2023-02-28T04:51:17;4.67;;;2.60;;
3916;SDS011;1973;50.518;7.318;2023-02-28T04:53:45;5.07;;;2.90;;
3916;SDS011;1973;50.518;7.318;2023-02-28T04:56:12;3.33;;;2.40;;
3916;SDS011;1973;50.518;7.318;2023-02-28T04:58:40;3.23;;;2.60;;
3916;SDS011;1973;50.518;7.318;2023-02-28T05:01:14;4.30;;;3.00;;
3916;SDS011;1973;50.518;7.318;2023-02-28T05:03:41;3.60;;;2.93;;
3916;SDS011;1973;50.518;7.318;2023-02-28T05:06:09;4.83;;;3.63;;
3916;SDS011;1973;50.518;7.318;2023-02-28T05:08:36;4.33;;;2.80;;
3916;SDS011;1973;50.518;7.318;2023-02-28T05:11:03;2.60;;;2.33;;
3916;SDS011;1973;50.518;7.318;2023-02-28T05:13:31;3.30;;;2.40;;
3916;SDS011;1973;50.518;7.318;2023-02-28T05:15:58;3.27;;;2.73;;
3916;SDS011;1973;50.518;7.318;2023-02-28T05:18:24;3.90;;;2.47;;
3916;SDS011;1973;50.518;7.318;2023-02-28T05:20:51;3.67;;;2.60;;
3916;SDS011;1973;50.518;7.318;2023-02-28T05:23:17;3.50;;;2.73;;
3916;SDS011;1973;50.518;7.318;2023-02-28T05:25:48;3.40;;;2.60;;
3916;SDS011;1973;50.518;7.318;2023-02-28T05:28:14;4.90;;;3.20;;
3916;SDS011;1973;50.518;7.318;2023-02-28T05:30:41;3.37;;;2.80;;
3916;SDS011;1973;50.518;7.318;2023-02-28T05:33:09;3.40;;;2.57;;
3916;SDS011;1973;50.518;7.318;2023-02-28T05:35:38;6.60;;;3.10;;
3916;SDS011;1973;50.518;7.318;2023-02-28T05:38:05;4.77;;;3.00;;
3916;SDS011;1973;50.518;7.318;2023-02-28T05:40:32;4.63;;;3.30;;
3916;SDS011;1973;50.518;7.318;2023-02-28T05:42:59;3.90;;;3.17;;
3916;SDS011;1973;50.518;7.318;2023-02-28T05:45:26;4.00;;;2.90;;
3916;SDS011;1973;50.518;7.318;2023-02-28T05:47:55;4.83;;;2.83;;
3916;SDS011;1973;50.518;7.318;2023-02-28T05:50:22;4.20;;;2.83;;
3916;SDS011;1973;50.518;7.318;2023-02-28T05:52:49;4.33;;;2.77;;
3916;SDS011;1973;50.518;7.318;2023-02-28T05:55:16;5.63;;;3.00;;
3916;SDS011;1973;50.518;7.318;2023-02-28T05:57:43;4.30;;;3.10;;
3916;SDS011;1973;50.518;7.318;2023-02-28T06:00:09;4.43;;;2.87;;
3916;SDS011;1973;50.518;7.318;2023-02-28T06:02:38;5.53;;;3.07;;
3916;SDS011;1973;50.518;7.318;2023-02-28T06:05:13;5.57;;;3.40;;
3916;SDS011;1973;50.518;7.318;2023-02-28T06:07:41;4.23;;;3.17;;
3916;SDS011;1973;50.518;7.318;2023-02-28T06:10:09;5.83;;;3.40;;
3916;SDS011;1973;50.518;7.318;2023-02-28T06:12:36;4.50;;;2.97;;
3916;SDS011;1973;50.518;7.318;2023-02-28T06:15:03;7.20;;;2.90;;
3916;SDS011;1973;50.518;7.318;2023-02-28T06:17:30;4.80;;;2.80;;
3916;SDS011;1973;50.518;7.318;2023-02-28T06:19:56;3.50;;;2.60;;
3916;SDS011;1973;50.518;7.318;2023-02-28T06:22:23;5.23;;;3.47;;
3916;SDS011;1973;50.518;7.318;2023-02-28T06:24:49;3.70;;;3.10;;
3916;SDS011;1973;50.518;7.318;2023-02-28T06:27:16;4.17;;;3.20;;
3916;SDS011;1973;50.518;7.318;2023-02-28T06:29:42;4.43;;;3.20;;
3916;SDS011;1973;50.518;7.318;2023-02-28T06:32:09;4.73;;;3.27;;
3916;SDS011;1973;50.518;7.318;2023-02-28T06:34:35;4.70;;;3.00;;
3916;SDS011;1973;50.518;7.318;2023-02-28T06:37:02;5.67;;;3.00;;
3916;SDS011;1973;50.518;7.318;2023-02-28T06:39:29;7.23;;;3.53;;
3916;SDS011;1973;50.518;7.318;2023-02-28T06:41:56;5.07;;;3.23;;
3916;SDS011;1973;50.518;7.318;2023-02-28T06:44:23;5.50;;;3.00;;
3916;SDS011;1973;50.518;7.318;2023-02-28T06:46:50;7.43;;;3.30;;
3916;SDS011;1973;50.518;7.318;2023-02-28T06:49:17;4.00;;;2.70;;
3916;SDS011;1973;50.518;7.318;2023-02-28T06:51:44;4.67;;;3.20;;
3916;SDS011;1973;50.518;7.318;2023-02-28T06:54:14;4.70;;;3.27;;
3916;SDS011;1973;50.518;7.318;2023-02-28T06:56:40;7.03;;;3.77;;
3916;SDS011;1973;50.518;7.318;2023-02-28T06:59:06;13.97;;;6.37;;
3916;SDS011;1973;50.518;7.318;2023-02-28T07:01:34;10.87;;;6.97;;
3916;SDS011;1973;50.518;7.318;2023-02-28T07:04:01;8.73;;;5.40;;
3916;SDS011;1973;50.518;7.318;2023-02-28T07:06:27;6.53;;;3.97;;
3916;SDS011;1973;50.518;7.318;2023-02-28T07:08:54;6.37;;;4.03;;
3916;SDS011;1973;50.518;7.318;2023-02-28T07:11:22;4.67;;;2.90;;
3916;SDS011;1973;50.518;7.318;2023-02-28T07:13:52;4.07;;;3.10;;
3916;SDS011;1973;50.518;7.318;2023-02-28T07:16:22;3.20;;;2.77;;
3916;SDS011;1973;50.518;7.318;2023-02-28T07:18:51;3.80;;;3.40;;
3916;SDS011;1973;50.518;7.318;2023-02-28T07:21:19;4.27;;;2.80;;
3916;SDS011;1973;50.518;7.318;2023-02-28T07:23:45;4.10;;;2.70;;
3916;SDS011;1973;50.518;7.318;2023-02-28T07:26:14;4.30;;;2.90;;
3916;SDS011;1973;50.518;7.318;2023-02-28T07:28:43;4.60;;;3.00;;
3916;SDS011;1973;50.518;7.318;2023-02-28T07:31:11;4.53;;;3.47;;
3916;SDS011;1973;50.518;7.318;2023-02-28T07:33:40;5.40;;;3.80;;
3916;SDS011;1973;50.518;7.318;2023-02-28T07:36:08;9.87;;;4.50;;
3916;SDS011;1973;50.518;7.318;2023-02-28T07:38:41;7.80;;;5.10;;
3916;SDS011;1973;50.518;7.318;2023-02-28T07:41:14;5.83;;;4.40;;
3916;SDS011;1973;50.518;7.318;2023-02-28T07:43:41;6.73;;;4.33;;
3916;SDS011;1973;50.518;7.318;2023-02-28T07:46:09;8.07;;;5.20;;
3916;SDS011;1973;50.518;7.318;2023-02-28T07:48:37;6.57;;;4.87;;
3916;SDS011;1973;50.518;7.318;2023-02-28T07:51:04;4.07;;;3.40;;
3916;SDS011;1973;50.518;7.318;2023-02-28T07:53:31;6.17;;;3.67;;
3916;SDS011;1973;50.518;7.318;2023-02-28T07:55:58;4.40;;;3.43;;
3916;SDS011;1973;50.518;7.318;2023-02-28T07:58:27;3.60;;;2.80;;
3916;SDS011;1973;50.518;7.318;2023-02-28T08:00:55;4.00;;;3.13;;
3916;SDS011;1973;50.518;7.318;2023-02-28T08:03:23;5.90;;;3.00;;
3916;SDS011;1973;50.518;7.318;2023-02-28T08:05:50;4.47;;;2.90;;
3916;SDS011;1973;50.518;7.318;2023-02-28T08:08:18;5.27;;;3.40;;
3916;SDS011;1973;50.518;7.318;2023-02-28T08:10:44;3.17;;;2.87;;
3916;SDS011;1973;50.518;7.318;2023-02-28T08:13:11;3.67;;;3.10;;
3916;SDS011;1973;50.518;7.318;2023-02-28T08:15:37;3.80;;;3.13;;
3916;SDS011;1973;50.518;7.318;2023-02-28T08:18:04;4.10;;;3.13;;
3916;SDS011;1973;50.518;7.318;2023-02-28T08:20:31;4.90;;;3.40;;
3916;SDS011;1973;50.518;7.318;2023-02-28T08:22:57;4.03;;;2.67;;
3916;SDS011;1973;50.518;7.318;2023-02-28T08:25:24;4.07;;;2.57;;
3916;SDS011;1973;50.518;7.318;2023-02-28T08:27:51;3.90;;;2.97;;
3916;SDS011;1973;50.518;7.318;2023-02-28T08:30:18;3.83;;;2.67;;
3916;SDS011;1973;50.518;7.318;2023-02-28T08:32:45;3.97;;;2.57;;
3916;SDS011;1973;50.518;7.318;2023-02-28T08:35:11;2.87;;;2.33;;
3916;SDS011;1973;50.518;7.318;2023-02-28T08:37:38;4.97;;;2.73;;
3916;SDS011;1973;50.518;7.318;2023-02-28T08:40:05;4.83;;;2.90;;
3916;SDS011;1973;50.518;7.318;2023-02-28T08:42:32;4.03;;;2.90;;
3916;SDS011;1973;50.518;7.318;2023-02-28T08:44:58;3.87;;;2.80;;
3916;SDS011;1973;50.518;7.318;2023-02-28T08:47:25;6.77;;;3.70;;
3916;SDS011;1973;50.518;7.318;2023-02-28T08:49:52;7.70;;;4.10;;
3916;SDS011;1973;50.518;7.318;2023-02-28T08:52:18;5.77;;;3.90;;
3916;SDS011;1973;50.518;7.318;2023-02-28T08:54:45;5.07;;;4.33;;
3916;SDS011;1973;50.518;7.318;2023-02-28T08:57:11;5.63;;;4.20;;
3916;SDS011;1973;50.518;7.318;2023-02-28T08:59:37;4.83;;;4.03;;
3916;SDS011;1973;50.518;7.318;2023-02-28T09:02:04;5.47;;;3.43;;
3916;SDS011;1973;50.518;7.318;2023-02-28T09:04:30;4.83;;;3.20;;
3916;SDS011;1973;50.518;7.318;2023-02-28T09:06:57;3.70;;;2.30;;
3916;SDS011;1973;50.518;7.318;2023-02-28T09:09:23;3.73;;;2.60;;
3916;SDS011;1973;50.518;7.318;2023-02-28T09:11:50;2.77;;;2.40;;
3916;SDS011;1973;50.518;7.318;2023-02-28T09:14:16;6.13;;;2.20;;
3916;SDS011;1973;50.518;7.318;2023-02-28T09:16:43;2.67;;;2.20;;
3916;SDS011;1973;50.518;7.318;2023-02-28T09:19:11;3.77;;;3.10;;
3916;SDS011;1973;50.518;7.318;2023-02-28T09:21:38;4.10;;;3.40;;
3916;SDS011;1973;50.518;7.318;2023-02-28T09:24:04;4.60;;;3.47;;
3916;SDS011;1973;50.518;7.318;2023-02-28T09:26:31;3.60;;;2.53;;
3916;SDS011;1973;50.518;7.318;2023-02-28T09:29:08;4.40;;;2.33;;
3916;SDS011;1973;50.518;7.318;2023-02-28T09:31:35;4.50;;;2.87;;
3916;SDS011;1973;50.518;7.318;2023-02-28T09:34:01;4.17;;;2.50;;
3916;SDS011;1973;50.518;7.318;2023-02-28T09:36:29;3.20;;;2.70;;
3916;SDS011;1973;50.518;7.318;2023-02-28T09:39:10;3.40;;;2.93;;
3916;SDS011;1973;50.518;7.318;2023-02-28T09:41:37;2.87;;;2.20;;
3916;SDS011;1973;50.518;7.318;2023-02-28T09:44:15;3.53;;;2.90;;
3916;SDS011;1973;50.518;7.318;2023-02-28T09:46:49;2.97;;;2.40;;
3916;SDS011;1973;50.518;7.318;2023-02-28T09:49:22;2.43;;;2.23;;
3916;SDS011;1973;50.518;7.318;2023-02-28T09:51:58;3.70;;;2.50;;
3916;SDS011;1973;50.518;7.318;2023-02-28T09:54:28;4.07;;;3.03;;
3916;SDS011;1973;50.518;7.318;2023-02-28T10:04:50;3.40;;;2.77;;
3916;SDS011;1973;50.518;7.318;2023-02-28T10:07:25;3.47;;;2.30;;
3916;SDS011;1973;50.518;7.318;2023-02-28T10:09:56;3.90;;;1.70;;
3916;SDS011;1973;50.518;7.318;2023-02-28T10:12:28;3.13;;;2.10;;
3916;SDS011;1973;50.518;7.318;2023-02-28T10:14:55;4.83;;;2.30;;
3916;SDS011;1973;50.518;7.318;2023-02-28T10:17:36;2.87;;;1.90;;
3916;SDS011;1973;50.518;7.318;2023-02-28T10:20:25;2.70;;;2.10;;
3916;SDS011;1973;50.518;7.318;2023-02-28T10:23:17;3.00;;;2.70;;
3916;SDS011;1973;50.518;7.318;2023-02-28T10:25:57;3.23;;;2.27;;
3916;SDS011;1973;50.518;7.318;2023-02-28T10:28:26;2.43;;;2.20;;
3916;SDS011;1973;50.518;7.318;2023-02-28T10:30:55;4.17;;;2.37;;
3916;SDS011;1973;50.518;7.318;2023-02-28T10:33:23;2.80;;;2.53;;
3916;SDS011;1973;50.518;7.318;2023-02-28T10:35:51;2.43;;;1.80;;
3916;SDS011;1973;50.518;7.318;2023-02-28T10:38:22;2.97;;;2.57;;
3916;SDS011;1973;50.518;7.318;2023-02-28T10:40:51;3.67;;;2.23;;
3916;SDS011;1973;50.518;7.318;2023-02-28T10:43:38;2.33;;;1.83;;
3916;SDS011;1973;50.518;7.318;2023-02-28T10:48:39;3.87;;;2.20;;
3916;SDS011;1973;50.518;7.318;2023-02-28T10:51:13;2.77;;;2.23;;
3916;SDS011;1973;50.518;7.318;2023-02-28T10:56:28;3.67;;;1.87;;
3916;SDS011;1973;50.518;7.318;2023-02-28T10:59:41;5.43;;;2.37;;
3916;SDS011;1973;50.518;7.318;2023-02-28T11:01:53;2.23;;;1.97;;
3916;SDS011;1973;50.518;7.318;2023-02-28T11:06:59;2.60;;;2.40;;
3916;SDS011;1973;50.518;7.318;2023-02-28T11:09:28;3.50;;;2.67;;
3916;SDS011;1973;50.518;7.318;2023-02-28T11:11:58;2.90;;;2.57;;
3916;SDS011;1973;50.518;7.318;2023-02-28T11:14:29;3.53;;;2.50;;
3916;SDS011;1973;50.518;7.318;2023-02-28T11:17:11;2.53;;;2.10;;
3916;SDS011;1973;50.518;7.318;2023-02-28T11:19:44;3.23;;;2.90;;
3916;SDS011;1973;50.518;7.318;2023-02-28T11:22:17;2.50;;;2.30;;
3916;SDS011;1973;50.518;7.318;2023-02-28T11:24:47;3.43;;;2.50;;
3916;SDS011;1973;50.518;7.318;2023-02-28T11:32:55;3.50;;;3.00;;
3916;SDS011;1973;50.518;7.318;2023-02-28T11:35:27;3.60;;;2.40;;
3916;SDS011;1973;50.518;7.318;2023-02-28T11:38:00;4.20;;;2.80;;
3916;SDS011;1973;50.518;7.318;2023-02-28T11:40:30;4.67;;;3.23;;
3916;SDS011;1973;50.518;7.318;2023-02-28T11:43:06;3.37;;;2.57;;
3916;SDS011;1973;50.518;7.318;2023-02-28T11:48:23;3.10;;;2.63;;
3916;SDS011;1973;50.518;7.318;2023-02-28T11:51:01;2.80;;;2.20;;
3916;SDS011;1973;50.518;7.318;2023-02-28T11:56:36;2.93;;;2.50;;
3916;SDS011;1973;50.518;7.318;2023-02-28T12:01:47;4.57;;;3.50;;
3916;SDS011;1973;50.518;7.318;2023-02-28T12:12:48;3.80;;;3.00;;
3916;SDS011;1973;50.518;7.318;2023-02-28T12:20:54;3.00;;;2.63;;
3916;SDS011;1973;50.518;7.318;2023-02-28T12:26:52;2.97;;;2.67;;
3916;SDS011;1973;50.518;7.318;2023-02-28T12:29:28;2.80;;;2.50;;
3916;SDS011;1973;50.518;7.318;2023-02-28T12:32:13;4.20;;;3.53;;
3916;SDS011;1973;50.518;7.318;2023-02-28T12:34:50;3.23;;;2.80;;
3916;SDS011;1973;50.518;7.318;2023-02-28T12:37:36;5.30;;;4.23;;
3916;SDS011;1973;50.518;7.318;2023-02-28T12:40:11;4.37;;;3.50;;
3916;SDS011;1973;50.518;7.318;2023-02-28T12:45:31;3.97;;;2.70;;
3916;SDS011;1973;50.518;7.318;2023-02-28T12:48:05;3.30;;;2.50;;
3916;SDS011;1973;50.518;7.318;2023-02-28T12:50:37;3.13;;;2.83;;
3916;SDS011;1973;50.518;7.318;2023-02-28T12:56:09;2.50;;;2.13;;
3916;SDS011;1973;50.518;7.318;2023-02-28T12:58:47;3.63;;;2.90;;
3916;SDS011;1973;50.518;7.318;2023-02-28T13:07:08;3.33;;;3.03;;
3916;SDS011;1973;50.518;7.318;2023-02-28T13:09:56;3.33;;;3.03;;
3916;SDS011;1973;50.518;7.318;2023-02-28T13:12:25;3.90;;;3.37;;
3916;SDS011;1973;50.518;7.318;2023-02-28T13:15:04;3.53;;;2.80;;
3916;SDS011;1973;50.518;7.318;2023-02-28T13:17:42;4.03;;;2.70;;
3916;SDS011;1973;50.518;7.318;2023-02-28T13:20:16;2.83;;;2.50;;
3916;SDS011;1973;50.518;7.318;2023-02-28T13:23:04;4.20;;;3.03;;
3916;SDS011;1973;50.518;7.318;2023-02-28T13:26:04;3.83;;;3.10;;
3916;SDS011;1973;50.518;7.318;2023-02-28T13:31:23;3.60;;;2.77;;
3916;SDS011;1973;50.518;7.318;2023-02-28T13:38:54;3.83;;;3.13;;
3916;SDS011;1973;50.518;7.318;2023-02-28T13:41:47;3.53;;;3.20;;
3916;SDS011;1973;50.518;7.318;2023-02-28T13:44:17;4.90;;;2.90;;
3916;SDS011;1973;50.518;7.318;2023-02-28T13:49:31;3.83;;;3.33;;
3916;SDS011;1973;50.518;7.318;2023-02-28T14:00:56;3.70;;;3.10;;
3916;SDS011;1973;50.518;7.318;2023-02-28T14:11:35;3.53;;;3.03;;
3916;SDS011;1973;50.518;7.318;2023-02-28T14:14:04;4.30;;;3.73;;
3916;SDS011;1973;50.518;7.318;2023-02-28T14:16:36;4.43;;;3.40;;
3916;SDS011;1973;50.518;7.318;2023-02-28T14:19:19;4.67;;;3.53;;
3916;SDS011;1973;50.518;7.318;2023-02-28T14:21:59;5.47;;;4.20;;
3916;SDS011;1973;50.518;7.318;2023-02-28T14:36:01;5.10;;;4.03;;
3916;SDS011;1973;50.518;7.318;2023-02-28T14:38:45;4.70;;;3.07;;
3916;SDS011;1973;50.518;7.318;2023-02-28T14:41:23;3.80;;;3.07;;
3916;SDS011;1973;50.518;7.318;2023-02-28T14:43:56;3.57;;;3.27;;
3916;SDS011;1973;50.518;7.318;2023-02-28T14:46:30;4.43;;;3.40;;
3916;SDS011;1973;50.518;7.318;2023-02-28T14:49:03;3.57;;;3.27;;
3916;SDS011;1973;50.518;7.318;2023-02-28T14:51:38;2.87;;;2.60;;
3916;SDS011;1973;50.518;7.318;2023-02-28T14:54:04;4.00;;;3.70;;
3916;SDS011;1973;50.518;7.318;2023-02-28T14:56:37;4.53;;;4.00;;
3916;SDS011;1973;50.518;7.318;2023-02-28T14:59:05;3.63;;;3.30;;
3916;SDS011;1973;50.518;7.318;2023-02-28T15:01:49;4.97;;;3.40;;
3916;SDS011;1973;50.518;7.318;2023-02-28T15:04:21;3.87;;;3.40;;
3916;SDS011;1973;50.518;7.318;2023-02-28T15:07:09;4.53;;;3.77;;
3916;SDS011;1973;50.518;7.318;2023-02-28T15:09:37;4.17;;;3.13;;
3916;SDS011;1973;50.518;7.318;2023-02-28T15:12:04;4.43;;;3.80;;
3916;SDS011;1973;50.518;7.318;2023-02-28T15:14:30;4.27;;;3.70;;
3916;SDS011;1973;50.518;7.318;2023-02-28T15:17:02;4.77;;;4.00;;
3916;SDS011;1973;50.518;7.318;2023-02-28T15:19:36;4.27;;;3.57;;
3916;SDS011;1973;50.518;7.318;2023-02-28T15:22:11;5.57;;;5.07;;
3916;SDS011;1973;50.518;7.318;2023-02-28T15:24:44;4.70;;;4.20;;
3916;SDS011;1973;50.518;7.318;2023-02-28T15:27:25;4.27;;;3.90;;
3916;SDS011;1973;50.518;7.318;2023-02-28T15:30:01;5.00;;;4.07;;
3916;SDS011;1973;50.518;7.318;2023-02-28T15:32:33;5.03;;;4.53;;
3916;SDS011;1973;50.518;7.318;2023-02-28T15:37:52;4.53;;;3.97;;
3916;SDS011;1973;50.518;7.318;2023-02-28T15:40:23;6.97;;;4.23;;
3916;SDS011;1973;50.518;7.318;2023-02-28T15:43:12;4.50;;;4.00;;
3916;SDS011;1973;50.518;7.318;2023-02-28T15:45:44;3.93;;;3.60;;
3916;SDS011;1973;50.518;7.318;2023-02-28T15:48:17;5.27;;;4.77;;
3916;SDS011;1973;50.518;7.318;2023-02-28T15:50:53;4.53;;;4.10;;
3916;SDS011;1973;50.518;7.318;2023-02-28T15:53:24;5.83;;;4.53;;
3916;SDS011;1973;50.518;7.318;2023-02-28T15:56:00;5.70;;;3.83;;
3916;SDS011;1973;50.518;7.318;2023-02-28T15:58:29;5.90;;;4.80;;
3916;SDS011;1973;50.518;7.318;2023-02-28T16:01:07;5.30;;;4.47;;
3916;SDS011;1973;50.518;7.318;2023-02-28T16:03:45;6.00;;;4.50;;
3916;SDS011;1973;50.518;7.318;2023-02-28T16:09:11;5.93;;;4.37;;
3916;SDS011;1973;50.518;7.318;2023-02-28T16:11:42;5.13;;;4.30;;
3916;SDS011;1973;50.518;7.318;2023-02-28T16:14:12;5.00;;;4.50;;
3916;SDS011;1973;50.518;7.318;2023-02-28T16:16:43;5.27;;;4.40;;
3916;SDS011;1973;50.518;7.318;2023-02-28T16:19:11;4.30;;;3.90;;
3916;SDS011;1973;50.518;7.318;2023-02-28T16:21:38;4.83;;;4.17;;
3916;SDS011;1973;50.518;7.318;2023-02-28T16:24:05;6.40;;;4.67;;
3916;SDS011;1973;50.518;7.318;2023-02-28T16:26:32;5.50;;;4.80;;
3916;SDS011;1973;50.518;7.318;2023-02-28T16:29:00;5.57;;;4.80;;
3916;SDS011;1973;50.518;7.318;2023-02-28T16:31:28;4.90;;;4.13;;
3916;SDS011;1973;50.518;7.318;2023-02-28T16:33:55;6.20;;;4.73;;
3916;SDS011;1973;50.518;7.318;2023-02-28T16:36:24;4.60;;;4.10;;
3916;SDS011;1973;50.518;7.318;2023-02-28T16:38:54;4.50;;;4.00;;
3916;SDS011;1973;50.518;7.318;2023-02-28T16:41:22;4.87;;;4.40;;
3916;SDS011;1973;50.518;7.318;2023-02-28T16:43:52;4.40;;;3.63;;
3916;SDS011;1973;50.518;7.318;2023-02-28T16:46:25;4.73;;;4.20;;
3916;SDS011;1973;50.518;7.318;2023-02-28T16:48:56;4.90;;;4.27;;
3916;SDS011;1973;50.518;7.318;2023-02-28T16:51:22;7.03;;;4.23;;
3916;SDS011;1973;50.518;7.318;2023-02-28T16:53:49;5.80;;;4.50;;
3916;SDS011;1973;50.518;7.318;2023-02-28T16:56:24;6.90;;;4.07;;
3916;SDS011;1973;50.518;7.318;2023-02-28T16:58:57;4.67;;;4.10;;
3916;SDS011;1973;50.518;7.318;2023-02-28T17:01:27;5.00;;;4.27;;
3916;SDS011;1973;50.518;7.318;2023-02-28T17:03:55;4.50;;;3.87;;
3916;SDS011;1973;50.518;7.318;2023-02-28T17:06:22;5.40;;;4.63;;
3916;SDS011;1973;50.518;7.318;2023-02-28T17:08:51;5.90;;;4.63;;
3916;SDS011;1973;50.518;7.318;2023-02-28T17:11:18;6.73;;;4.30;;
3916;SDS011;1973;50.518;7.318;2023-02-28T17:13:46;5.47;;;4.73;;
3916;SDS011;1973;50.518;7.318;2023-02-28T17:19:03;5.27;;;4.70;;
3916;SDS011;1973;50.518;7.318;2023-02-28T17:21:31;10.10;;;7.40;;
3916;SDS011;1973;50.518;7.318;2023-02-28T17:23:59;14.30;;;11.13;;
3916;SDS011;1973;50.518;7.318;2023-02-28T17:26:26;23.67;;;17.83;;
3916;SDS011;1973;50.518;7.318;2023-02-28T17:28:55;17.83;;;14.50;;
3916;SDS011;1973;50.518;7.318;2023-02-28T17:31:23;12.77;;;10.63;;
3916;SDS011;1973;50.518;7.318;2023-02-28T17:33:51;13.17;;;10.43;;
3916;SDS011;1973;50.518;7.318;2023-02-28T17:36:22;10.40;;;8.97;;
3916;SDS011;1973;50.518;7.318;2023-02-28T17:38:53;11.23;;;9.53;;
3916;SDS011;1973;50.518;7.318;2023-02-28T17:41:21;9.20;;;7.20;;
3916;SDS011;1973;50.518;7.318;2023-02-28T17:43:48;6.83;;;5.60;;
3916;SDS011;1973;50.518;7.318;2023-02-28T17:46:17;6.27;;;4.60;;
3916;SDS011;1973;50.518;7.318;2023-02-28T17:48:47;5.90;;;3.93;;